sensor_id;sensor_type;location;lat;lon;timestamp;temperature;humidity
26537;DHT22;14204;51.262;5.488;2023-08-20T00:00:18;21.40;99.90
26537;DHT22;14204;51.262;5.488;2023-08-20T00:02:46;21.40;99.90
26537;DHT22;14204;51.262;5.488;2023-08-20T00:05:13;21.50;99.90
26537;DHT22;14204;51.262;5.488;2023-08-20T00:07:40;21.40;99.90
26537;DHT22;14204;51.262;5.488;2023-08-20T00:10:06;21.40;99.90
26537;DHT22;14204;51.262;5.488;2023-08-20T00:12:32;21.40;99.90
26537;DHT22;14204;51.262;5.488;2023-08-20T00:15:02;21.30;99.90
26537;DHT22;14204;51.262;5.488;2023-08-20T00:17:35;21.30;99.90
26537;DHT22;14204;51.262;5.488;2023-08-20T00:20:03;21.30;99.90
26537;DHT22;14204;51.262;5.488;2023-08-20T00:22:42;21.30;99.90
26537;DHT22;14204;51.262;5.488;2023-08-20T00:25:09;21.20;99.90
26537;DHT22;14204;51.262;5.488;2023-08-20T00:27:35;21.20;99.90
26537;DHT22;14204;51.262;5.488;2023-08-20T00:30:01;21.20;99.90
26537;DHT22;14204;51.262;5.488;2023-08-20T00:32:26;21.20;99.90
26537;DHT22;14204;51.262;5.488;2023-08-20T00:34:52;21.10;99.90
26537;DHT22;14204;51.262;5.488;2023-08-20T00:37:18;21.10;99.90
26537;DHT22;14204;51.262;5.488;2023-08-20T00:39:44;21.00;99.90
26537;DHT22;14204;51.262;5.488;2023-08-20T00:42:09;21.10;99.90
26537;DHT22;14204;51.262;5.488;2023-08-20T00:44:35;21.10;99.90
26537;DHT22;14204;51.262;5.488;2023-08-20T00:47:02;21.10;99.90
26537;DHT22;14204;51.262;5.488;2023-08-20T00:49:31;21.10;99.90
26537;DHT22;14204;51.262;5.488;2023-08-20T00:51:57;21.10;99.90
26537;DHT22;14204;51.262;5.488;2023-08-20T00:54:24;21.00;99.90
26537;DHT22;14204;51.262;5.488;2023-08-20T00:56:51;21.00;99.90
26537;DHT22;14204;51.262;5.488;2023-08-20T00:59:17;21.00;99.90
26537;DHT22;14204;51.262;5.488;2023-08-20T01:01:43;21.00;99.90
26537;DHT22;14204;51.262;5.488;2023-08-20T01:04:09;21.00;99.90
26537;DHT22;14204;51.262;5.488;2023-08-20T01:06:46;21.10;99.90
26537;DHT22;14204;51.262;5.488;2023-08-20T01:09:28;21.10;99.90
26537;DHT22;14204;51.262;5.488;2023-08-20T01:11:59;21.10;99.90
26537;DHT22;14204;51.262;5.488;2023-08-20T01:14:25;21.10;99.90
26537;DHT22;14204;51.262;5.488;2023-08-20T01:16:52;21.00;99.90
26537;DHT22;14204;51.262;5.488;2023-08-20T01:19:19;21.10;99.90
26537;DHT22;14204;51.262;5.488;2023-08-20T01:21:49;21.00;99.90
26537;DHT22;14204;51.262;5.488;2023-08-20T01:24:24;21.00;99.90
26537;DHT22;14204;51.262;5.488;2023-08-20T01:27:14;21.00;99.90
26537;DHT22;14204;51.262;5.488;2023-08-20T01:29:42;21.10;99.90
26537;DHT22;14204;51.262;5.488;2023-08-20T01:32:08;21.10;99.90
26537;DHT22;14204;51.262;5.488;2023-08-20T01:34:35;21.10;99.90
26537;DHT22;14204;51.262;5.488;2023-08-20T01:37:00;21.00;99.90
26537;DHT22;14204;51.262;5.488;2023-08-20T01:39:26;21.00;99.90
26537;DHT22;14204;51.262;5.488;2023-08-20T01:41:52;21.00;99.90
26537;DHT22;14204;51.262;5.488;2023-08-20T01:44:18;20.90;99.90
26537;DHT22;14204;51.262;5.488;2023-08-20T01:46:44;20.80;99.90
26537;DHT22;14204;51.262;5.488;2023-08-20T01:49:09;20.80;99.90
26537;DHT22;14204;51.262;5.488;2023-08-20T01:51:35;20.90;99.90
26537;DHT22;14204;51.262;5.488;2023-08-20T01:54:02;20.90;99.90
26537;DHT22;14204;51.262;5.488;2023-08-20T01:56:28;21.00;99.90
26537;DHT22;14204;51.262;5.488;2023-08-20T01:58:53;21.00;99.90
26537;DHT22;14204;51.262;5.488;2023-08-20T02:01:19;21.00;99.90
26537;DHT22;14204;51.262;5.488;2023-08-20T02:03:45;21.00;99.90
26537;DHT22;14204;51.262;5.488;2023-08-20T02:06:11;21.10;99.90
26537;DHT22;14204;51.262;5.488;2023-08-20T02:08:36;21.00;99.90
26537;DHT22;14204;51.262;5.488;2023-08-20T02:11:03;21.00;99.90
26537;DHT22;14204;51.262;5.488;2023-08-20T02:13:30;21.00;99.90
26537;DHT22;14204;51.262;5.488;2023-08-20T02:16:03;21.00;99.90
26537;DHT22;14204;51.262;5.488;2023-08-20T02:18:30;21.00;99.90
26537;DHT22;14204;51.262;5.488;2023-08-20T02:20:56;21.00;99.90
26537;DHT22;14204;51.262;5.488;2023-08-20T02:23:22;21.00;99.90
26537;DHT22;14204;51.262;5.488;2023-08-20T02:25:48;21.10;99.90
26537;DHT22;14204;51.262;5.488;2023-08-20T02:28:14;21.10;99.90
26537;DHT22;14204;51.262;5.488;2023-08-20T02:30:45;21.10;99.90
26537;DHT22;14204;51.262;5.488;2023-08-20T02:33:11;21.10;99.90
26537;DHT22;14204;51.262;5.488;2023-08-20T02:35:38;21.10;99.90
26537;DHT22;14204;51.262;5.488;2023-08-20T02:38:04;21.10;99.90
26537;DHT22;14204;51.262;5.488;2023-08-20T02:40:31;21.10;99.90
26537;DHT22;14204;51.262;5.488;2023-08-20T02:42:57;21.00;99.90
26537;DHT22;14204;51.262;5.488;2023-08-20T02:45:22;21.00;99.90
26537;DHT22;14204;51.262;5.488;2023-08-20T02:47:49;20.90;99.90
26537;DHT22;14204;51.262;5.488;2023-08-20T02:50:15;21.00;99.90
26537;DHT22;14204;51.262;5.488;2023-08-20T02:52:42;20.90;99.90
26537;DHT22;14204;51.262;5.488;2023-08-20T02:55:08;20.70;99.90
26537;DHT22;14204;51.262;5.488;2023-08-20T02:57:34;20.70;99.90
26537;DHT22;14204;51.262;5.488;2023-08-20T03:00:00;20.80;99.90
26537;DHT22;14204;51.262;5.488;2023-08-20T03:02:25;20.80;99.90
26537;DHT22;14204;51.262;5.488;2023-08-20T03:04:51;20.80;99.90
26537;DHT22;14204;51.262;5.488;2023-08-20T03:07:18;20.80;99.90
26537;DHT22;14204;51.262;5.488;2023-08-20T03:09:44;20.90;99.90
26537;DHT22;14204;51.262;5.488;2023-08-20T03:12:10;20.80;99.90
26537;DHT22;14204;51.262;5.488;2023-08-20T03:14:36;20.80;99.90
26537;DHT22;14204;51.262;5.488;2023-08-20T03:17:01;20.80;99.90
26537;DHT22;14204;51.262;5.488;2023-08-20T03:19:32;20.70;99.90
26537;DHT22;14204;51.262;5.488;2023-08-20T03:21:58;20.60;99.90
26537;DHT22;14204;51.262;5.488;2023-08-20T03:24:24;20.70;99.90
26537;DHT22;14204;51.262;5.488;2023-08-20T03:26:49;20.70;99.90
26537;DHT22;14204;51.262;5.488;2023-08-20T03:29:15;20.70;99.90
26537;DHT22;14204;51.262;5.488;2023-08-20T03:31:41;20.70;99.90
26537;DHT22;14204;51.262;5.488;2023-08-20T03:34:07;20.60;99.90
26537;DHT22;14204;51.262;5.488;2023-08-20T03:36:35;20.60;99.90
26537;DHT22;14204;51.262;5.488;2023-08-20T03:39:01;20.60;99.90
26537;DHT22;14204;51.262;5.488;2023-08-20T03:41:26;20.60;99.90
26537;DHT22;14204;51.262;5.488;2023-08-20T03:43:52;20.50;99.90
26537;DHT22;14204;51.262;5.488;2023-08-20T03:46:18;20.50;99.90
26537;DHT22;14204;51.262;5.488;2023-08-20T03:48:43;20.50;99.90
26537;DHT22;14204;51.262;5.488;2023-08-20T03:51:09;20.40;99.90
26537;DHT22;14204;51.262;5.488;2023-08-20T03:53:35;20.50;99.90
26537;DHT22;14204;51.262;5.488;2023-08-20T03:56:01;20.40;99.90
26537;DHT22;14204;51.262;5.488;2023-08-20T03:58:26;20.40;99.90
26537;DHT22;14204;51.262;5.488;2023-08-20T04:00:52;20.50;99.90
26537;DHT22;14204;51.262;5.488;2023-08-20T04:03:18;20.40;99.90
26537;DHT22;14204;51.262;5.488;2023-08-20T04:05:45;20.40;99.90
26537;DHT22;14204;51.262;5.488;2023-08-20T04:08:11;20.40;99.90
26537;DHT22;14204;51.262;5.488;2023-08-20T04:10:43;20.40;99.90
26537;DHT22;14204;51.262;5.488;2023-08-20T04:13:10;20.40;99.90
26537;DHT22;14204;51.262;5.488;2023-08-20T04:15:35;20.40;99.90
26537;DHT22;14204;51.262;5.488;2023-08-20T04:18:01;20.40;99.90
26537;DHT22;14204;51.262;5.488;2023-08-20T04:20:27;20.30;99.90
26537;DHT22;14204;51.262;5.488;2023-08-20T04:22:53;20.40;99.90
26537;DHT22;14204;51.262;5.488;2023-08-20T04:25:18;20.30;99.90
26537;DHT22;14204;51.262;5.488;2023-08-20T04:27:44;20.30;99.90
26537;DHT22;14204;51.262;5.488;2023-08-20T04:30:10;20.30;99.90
26537;DHT22;14204;51.262;5.488;2023-08-20T04:32:36;20.30;99.90
26537;DHT22;14204;51.262;5.488;2023-08-20T04:35:02;20.30;99.90
26537;DHT22;14204;51.262;5.488;2023-08-20T04:37:28;20.30;99.90
26537;DHT22;14204;51.262;5.488;2023-08-20T04:39:53;20.30;99.90
26537;DHT22;14204;51.262;5.488;2023-08-20T04:42:19;20.30;99.90
26537;DHT22;14204;51.262;5.488;2023-08-20T04:44:45;20.20;99.90
26537;DHT22;14204;51.262;5.488;2023-08-20T04:47:12;20.30;99.90
26537;DHT22;14204;51.262;5.488;2023-08-20T04:49:38;20.20;99.90
26537;DHT22;14204;51.262;5.488;2023-08-20T04:52:04;20.20;99.90
26537;DHT22;14204;51.262;5.488;2023-08-20T04:54:30;20.20;99.90
26537;DHT22;14204;51.262;5.488;2023-08-20T04:56:56;20.10;99.90
26537;DHT22;14204;51.262;5.488;2023-08-20T04:59:22;20.10;99.90
26537;DHT22;14204;51.262;5.488;2023-08-20T05:01:48;20.10;99.90
26537;DHT22;14204;51.262;5.488;2023-08-20T05:04:13;20.10;99.90
26537;DHT22;14204;51.262;5.488;2023-08-20T05:06:39;20.00;99.90
26537;DHT22;14204;51.262;5.488;2023-08-20T05:09:05;20.00;99.90
26537;DHT22;14204;51.262;5.488;2023-08-20T05:11:31;20.10;99.90
26537;DHT22;14204;51.262;5.488;2023-08-20T05:13:58;20.10;99.90
26537;DHT22;14204;51.262;5.488;2023-08-20T05:16:24;20.10;99.90
26537;DHT22;14204;51.262;5.488;2023-08-20T05:18:50;20.00;99.90
26537;DHT22;14204;51.262;5.488;2023-08-20T05:21:15;20.00;99.90
26537;DHT22;14204;51.262;5.488;2023-08-20T05:23:41;20.00;99.90
26537;DHT22;14204;51.262;5.488;2023-08-20T05:26:07;20.00;99.90
26537;DHT22;14204;51.262;5.488;2023-08-20T05:28:34;20.00;99.90
26537;DHT22;14204;51.262;5.488;2023-08-20T05:31:00;20.00;99.90
26537;DHT22;14204;51.262;5.488;2023-08-20T05:33:26;20.00;99.90
26537;DHT22;14204;51.262;5.488;2023-08-20T05:35:52;19.90;99.90
26537;DHT22;14204;51.262;5.488;2023-08-20T05:38:18;19.90;99.90
26537;DHT22;14204;51.262;5.488;2023-08-20T05:40:44;20.00;99.90
26537;DHT22;14204;51.262;5.488;2023-08-20T05:43:09;20.00;99.90
26537;DHT22;14204;51.262;5.488;2023-08-20T05:45:35;20.00;99.90
26537;DHT22;14204;51.262;5.488;2023-08-20T05:48:01;19.90;99.90
26537;DHT22;14204;51.262;5.488;2023-08-20T05:50:27;19.90;99.90
26537;DHT22;14204;51.262;5.488;2023-08-20T05:52:53;20.00;99.90
26537;DHT22;14204;51.262;5.488;2023-08-20T05:55:18;20.00;99.90
26537;DHT22;14204;51.262;5.488;2023-08-20T05:57:45;20.00;99.90
26537;DHT22;14204;51.262;5.488;2023-08-20T06:00:11;20.00;99.90
26537;DHT22;14204;51.262;5.488;2023-08-20T06:02:37;20.00;99.90
26537;DHT22;14204;51.262;5.488;2023-08-20T06:05:04;20.00;99.90
26537;DHT22;14204;51.262;5.488;2023-08-20T06:07:31;20.10;99.90
26537;DHT22;14204;51.262;5.488;2023-08-20T06:09:56;20.10;99.90
26537;DHT22;14204;51.262;5.488;2023-08-20T06:12:23;20.10;99.90
26537;DHT22;14204;51.262;5.488;2023-08-20T06:14:49;20.10;99.90
26537;DHT22;14204;51.262;5.488;2023-08-20T06:17:15;20.10;99.90
26537;DHT22;14204;51.262;5.488;2023-08-20T06:19:41;20.10;99.90
26537;DHT22;14204;51.262;5.488;2023-08-20T06:22:07;20.20;99.90
26537;DHT22;14204;51.262;5.488;2023-08-20T06:24:33;20.20;99.90
26537;DHT22;14204;51.262;5.488;2023-08-20T06:26:59;20.20;99.90
26537;DHT22;14204;51.262;5.488;2023-08-20T06:29:24;20.20;99.90
26537;DHT22;14204;51.262;5.488;2023-08-20T06:31:50;20.10;99.90
26537;DHT22;14204;51.262;5.488;2023-08-20T06:34:16;20.20;99.90
26537;DHT22;14204;51.262;5.488;2023-08-20T06:36:43;20.20;99.90
26537;DHT22;14204;51.262;5.488;2023-08-20T06:39:09;20.20;99.90
26537;DHT22;14204;51.262;5.488;2023-08-20T06:41:35;20.20;99.90
26537;DHT22;14204;51.262;5.488;2023-08-20T06:44:02;20.20;99.90
26537;DHT22;14204;51.262;5.488;2023-08-20T06:46:27;20.30;99.90
26537;DHT22;14204;51.262;5.488;2023-08-20T06:48:53;20.30;99.90
26537;DHT22;14204;51.262;5.488;2023-08-20T06:51:20;20.30;99.90
26537;DHT22;14204;51.262;5.488;2023-08-20T06:53:47;20.30;99.90
26537;DHT22;14204;51.262;5.488;2023-08-20T06:56:13;20.40;99.90
26537;DHT22;14204;51.262;5.488;2023-08-20T06:58:40;20.40;99.90
26537;DHT22;14204;51.262;5.488;2023-08-20T07:01:06;20.50;99.90
26537;DHT22;14204;51.262;5.488;2023-08-20T07:03:37;20.50;99.90
26537;DHT22;14204;51.262;5.488;2023-08-20T07:06:03;20.50;99.90
26537;DHT22;14204;51.262;5.488;2023-08-20T07:08:29;20.50;99.90
26537;DHT22;14204;51.262;5.488;2023-08-20T07:10:55;20.60;99.90
26537;DHT22;14204;51.262;5.488;2023-08-20T07:13:22;20.60;99.90
26537;DHT22;14204;51.262;5.488;2023-08-20T07:15:48;20.70;99.90
26537;DHT22;14204;51.262;5.488;2023-08-20T07:18:13;20.70;99.90
26537;DHT22;14204;51.262;5.488;2023-08-20T07:20:42;20.80;99.90
26537;DHT22;14204;51.262;5.488;2023-08-20T07:23:09;20.90;99.90
26537;DHT22;14204;51.262;5.488;2023-08-20T07:25:39;20.90;99.90
26537;DHT22;14204;51.262;5.488;2023-08-20T07:28:06;20.90;99.90
26537;DHT22;14204;51.262;5.488;2023-08-20T07:30:32;21.00;99.90
26537;DHT22;14204;51.262;5.488;2023-08-20T07:32:58;21.00;99.90
26537;DHT22;14204;51.262;5.488;2023-08-20T07:35:24;21.10;99.90
26537;DHT22;14204;51.262;5.488;2023-08-20T07:37:50;21.10;99.90
26537;DHT22;14204;51.262;5.488;2023-08-20T07:40:16;21.10;99.90
26537;DHT22;14204;51.262;5.488;2023-08-20T07:42:42;21.10;99.90
26537;DHT22;14204;51.262;5.488;2023-08-20T07:45:08;21.20;99.90
26537;DHT22;14204;51.262;5.488;2023-08-20T07:47:36;21.30;99.90
26537;DHT22;14204;51.262;5.488;2023-08-20T07:50:03;21.30;99.90
26537;DHT22;14204;51.262;5.488;2023-08-20T07:52:29;21.50;99.90
26537;DHT22;14204;51.262;5.488;2023-08-20T07:54:54;21.50;99.90
26537;DHT22;14204;51.262;5.488;2023-08-20T07:57:20;21.60;99.90
26537;DHT22;14204;51.262;5.488;2023-08-20T07:59:47;21.70;99.90
26537;DHT22;14204;51.262;5.488;2023-08-20T08:02:13;21.70;99.90
26537;DHT22;14204;51.262;5.488;2023-08-20T08:04:38;21.80;99.90
26537;DHT22;14204;51.262;5.488;2023-08-20T08:07:05;21.90;99.90
26537;DHT22;14204;51.262;5.488;2023-08-20T08:09:31;22.00;99.90
26537;DHT22;14204;51.262;5.488;2023-08-20T08:11:58;22.10;99.90
26537;DHT22;14204;51.262;5.488;2023-08-20T08:14:24;22.20;99.90
26537;DHT22;14204;51.262;5.488;2023-08-20T08:16:50;22.30;99.90
26537;DHT22;14204;51.262;5.488;2023-08-20T08:19:16;22.40;99.90
26537;DHT22;14204;51.262;5.488;2023-08-20T08:21:42;22.50;99.90
26537;DHT22;14204;51.262;5.488;2023-08-20T08:24:09;22.60;99.90
26537;DHT22;14204;51.262;5.488;2023-08-20T08:26:36;22.60;99.90
26537;DHT22;14204;51.262;5.488;2023-08-20T08:29:02;22.70;99.90
26537;DHT22;14204;51.262;5.488;2023-08-20T08:31:28;22.70;99.90
26537;DHT22;14204;51.262;5.488;2023-08-20T08:33:54;22.70;99.90
26537;DHT22;14204;51.262;5.488;2023-08-20T08:36:20;22.90;99.90
26537;DHT22;14204;51.262;5.488;2023-08-20T08:38:46;23.00;99.90
26537;DHT22;14204;51.262;5.488;2023-08-20T08:41:34;23.00;99.90
26537;DHT22;14204;51.262;5.488;2023-08-20T08:44:06;23.10;99.90
26537;DHT22;14204;51.262;5.488;2023-08-20T08:46:39;23.20;99.90
26537;DHT22;14204;51.262;5.488;2023-08-20T08:49:06;23.20;99.90
26537;DHT22;14204;51.262;5.488;2023-08-20T08:51:34;23.40;99.90
26537;DHT22;14204;51.262;5.488;2023-08-20T08:54:02;23.50;99.90
26537;DHT22;14204;51.262;5.488;2023-08-20T08:56:28;23.40;99.90
26537;DHT22;14204;51.262;5.488;2023-08-20T08:58:54;23.40;99.90
26537;DHT22;14204;51.262;5.488;2023-08-20T09:01:20;23.50;99.90
26537;DHT22;14204;51.262;5.488;2023-08-20T09:03:47;23.70;99.90
26537;DHT22;14204;51.262;5.488;2023-08-20T09:06:13;23.80;99.90
26537;DHT22;14204;51.262;5.488;2023-08-20T09:08:39;24.00;99.90
26537;DHT22;14204;51.262;5.488;2023-08-20T09:11:04;24.10;99.90
26537;DHT22;14204;51.262;5.488;2023-08-20T09:15:59;24.40;99.90
26537;DHT22;14204;51.262;5.488;2023-08-20T09:18:25;24.60;99.90
26537;DHT22;14204;51.262;5.488;2023-08-20T09:20:54;24.80;99.90
26537;DHT22;14204;51.262;5.488;2023-08-20T09:23:19;24.90;99.90
26537;DHT22;14204;51.262;5.488;2023-08-20T09:25:45;25.10;99.90
26537;DHT22;14204;51.262;5.488;2023-08-20T09:28:11;25.20;99.90
26537;DHT22;14204;51.262;5.488;2023-08-20T09:30:38;25.40;99.90
26537;DHT22;14204;51.262;5.488;2023-08-20T09:33:10;25.50;99.90
26537;DHT22;14204;51.262;5.488;2023-08-20T09:35:36;25.60;99.90
26537;DHT22;14204;51.262;5.488;2023-08-20T09:38:05;25.60;99.90
26537;DHT22;14204;51.262;5.488;2023-08-20T09:40:31;25.70;99.90
26537;DHT22;14204;51.262;5.488;2023-08-20T09:42:57;25.80;99.90
26537;DHT22;14204;51.262;5.488;2023-08-20T09:45:28;26.00;99.90
26537;DHT22;14204;51.262;5.488;2023-08-20T09:47:55;26.10;99.90
26537;DHT22;14204;51.262;5.488;2023-08-20T09:50:25;26.20;99.90
26537;DHT22;14204;51.262;5.488;2023-08-20T09:53:12;26.30;99.90
26537;DHT22;14204;51.262;5.488;2023-08-20T09:55:41;26.30;99.90
26537;DHT22;14204;51.262;5.488;2023-08-20T09:58:09;26.50;99.90
26537;DHT22;14204;51.262;5.488;2023-08-20T10:00:36;26.60;99.90
26537;DHT22;14204;51.262;5.488;2023-08-20T10:03:02;26.70;99.90
26537;DHT22;14204;51.262;5.488;2023-08-20T10:05:28;26.60;99.90
26537;DHT22;14204;51.262;5.488;2023-08-20T10:07:55;26.70;99.90
26537;DHT22;14204;51.262;5.488;2023-08-20T10:10:21;26.80;99.90
26537;DHT22;14204;51.262;5.488;2023-08-20T10:12:48;27.00;99.90
26537;DHT22;14204;51.262;5.488;2023-08-20T10:15:15;27.10;99.90
26537;DHT22;14204;51.262;5.488;2023-08-20T10:17:42;27.10;99.90
26537;DHT22;14204;51.262;5.488;2023-08-20T10:20:10;27.20;99.90
26537;DHT22;14204;51.262;5.488;2023-08-20T10:22:37;27.30;99.90
26537;DHT22;14204;51.262;5.488;2023-08-20T10:27:35;27.40;99.90
26537;DHT22;14204;51.262;5.488;2023-08-20T10:30:02;27.40;99.90
26537;DHT22;14204;51.262;5.488;2023-08-20T10:35:18;27.50;99.90
26537;DHT22;14204;51.262;5.488;2023-08-20T10:38:07;27.60;99.90
26537;DHT22;14204;51.262;5.488;2023-08-20T10:40:53;27.70;99.90
26537;DHT22;14204;51.262;5.488;2023-08-20T10:46:13;27.70;99.90
26537;DHT22;14204;51.262;5.488;2023-08-20T10:48:46;27.80;99.90
26537;DHT22;14204;51.262;5.488;2023-08-20T10:51:17;27.80;99.90
26537;DHT22;14204;51.262;5.488;2023-08-20T10:54:01;28.00;99.90
26537;DHT22;14204;51.262;5.488;2023-08-20T10:59:21;28.00;99.90
26537;DHT22;14204;51.262;5.488;2023-08-20T11:01:49;28.00;99.90
26537;DHT22;14204;51.262;5.488;2023-08-20T11:04:23;28.00;99.90
26537;DHT22;14204;51.262;5.488;2023-08-20T11:06:56;28.20;99.90
26537;DHT22;14204;51.262;5.488;2023-08-20T11:09:24;28.30;99.90
26537;DHT22;14204;51.262;5.488;2023-08-20T11:11:50;28.40;99.90
26537;DHT22;14204;51.262;5.488;2023-08-20T11:14:18;28.50;99.90
26537;DHT22;14204;51.262;5.488;2023-08-20T11:16:45;28.40;99.90
26537;DHT22;14204;51.262;5.488;2023-08-20T11:19:12;28.40;99.90
26537;DHT22;14204;51.262;5.488;2023-08-20T11:21:42;28.40;99.90
26537;DHT22;14204;51.262;5.488;2023-08-20T11:24:09;28.40;99.90
26537;DHT22;14204;51.262;5.488;2023-08-20T11:26:37;28.50;99.90
26537;DHT22;14204;51.262;5.488;2023-08-20T11:29:07;28.60;99.90
26537;DHT22;14204;51.262;5.488;2023-08-20T11:31:34;28.80;99.90
26537;DHT22;14204;51.262;5.488;2023-08-20T11:34:02;28.90;99.90
26537;DHT22;14204;51.262;5.488;2023-08-20T11:36:28;29.00;99.90
26537;DHT22;14204;51.262;5.488;2023-08-20T11:38:54;29.20;99.90
26537;DHT22;14204;51.262;5.488;2023-08-20T11:41:24;29.00;99.90
26537;DHT22;14204;51.262;5.488;2023-08-20T11:43:52;29.00;99.90
26537;DHT22;14204;51.262;5.488;2023-08-20T11:46:23;29.00;99.90
26537;DHT22;14204;51.262;5.488;2023-08-20T11:49:08;29.10;99.90
26537;DHT22;14204;51.262;5.488;2023-08-20T11:51:42;29.10;99.90
26537;DHT22;14204;51.262;5.488;2023-08-20T11:54:12;29.30;99.90
26537;DHT22;14204;51.262;5.488;2023-08-20T11:56:50;29.30;99.90
26537;DHT22;14204;51.262;5.488;2023-08-20T11:59:18;29.20;99.90
26537;DHT22;14204;51.262;5.488;2023-08-20T12:01:51;29.20;99.90
26537;DHT22;14204;51.262;5.488;2023-08-20T12:04:17;29.20;99.90
26537;DHT22;14204;51.262;5.488;2023-08-20T12:06:42;29.30;99.90
26537;DHT22;14204;51.262;5.488;2023-08-20T12:09:22;29.40;99.90
26537;DHT22;14204;51.262;5.488;2023-08-20T12:11:58;29.50;99.90
26537;DHT22;14204;51.262;5.488;2023-08-20T12:14:28;29.50;99.90
26537;DHT22;14204;51.262;5.488;2023-08-20T12:16:56;29.50;99.90
26537;DHT22;14204;51.262;5.488;2023-08-20T12:19:22;29.40;99.90
26537;DHT22;14204;51.262;5.488;2023-08-20T12:21:49;29.40;99.90
26537;DHT22;14204;51.262;5.488;2023-08-20T12:24:15;29.30;99.90
26537;DHT22;14204;51.262;5.488;2023-08-20T12:26:41;29.40;99.90
26537;DHT22;14204;51.262;5.488;2023-08-20T12:29:07;29.30;99.90
26537;DHT22;14204;51.262;5.488;2023-08-20T12:31:33;29.30;99.90
26537;DHT22;14204;51.262;5.488;2023-08-20T12:33:59;29.40;99.90
26537;DHT22;14204;51.262;5.488;2023-08-20T12:36:25;29.60;99.90
26537;DHT22;14204;51.262;5.488;2023-08-20T12:38:52;29.70;99.90
26537;DHT22;14204;51.262;5.488;2023-08-20T12:41:19;29.70;99.90
26537;DHT22;14204;51.262;5.488;2023-08-20T12:43:45;29.70;99.90
26537;DHT22;14204;51.262;5.488;2023-08-20T12:46:11;29.90;99.90
26537;DHT22;14204;51.262;5.488;2023-08-20T12:48:38;29.70;99.90
26537;DHT22;14204;51.262;5.488;2023-08-20T12:51:04;29.70;99.90
26537;DHT22;14204;51.262;5.488;2023-08-20T12:53:30;29.80;99.90
26537;DHT22;14204;51.262;5.488;2023-08-20T12:55:56;29.80;99.90
26537;DHT22;14204;51.262;5.488;2023-08-20T12:58:22;30.00;99.90
26537;DHT22;14204;51.262;5.488;2023-08-20T13:00:48;30.10;99.90
26537;DHT22;14204;51.262;5.488;2023-08-20T13:03:14;29.70;99.90
26537;DHT22;14204;51.262;5.488;2023-08-20T13:05:40;29.60;99.90
26537;DHT22;14204;51.262;5.488;2023-08-20T13:08:06;29.50;99.90
26537;DHT22;14204;51.262;5.488;2023-08-20T13:10:33;29.60;99.90
26537;DHT22;14204;51.262;5.488;2023-08-20T13:13:01;29.70;99.90
26537;DHT22;14204;51.262;5.488;2023-08-20T13:15:27;29.70;99.90
26537;DHT22;14204;51.262;5.488;2023-08-20T13:17:53;29.80;99.90
26537;DHT22;14204;51.262;5.488;2023-08-20T13:20:20;29.80;99.90
26537;DHT22;14204;51.262;5.488;2023-08-20T13:22:51;30.00;99.90
26537;DHT22;14204;51.262;5.488;2023-08-20T13:25:17;29.90;99.90
26537;DHT22;14204;51.262;5.488;2023-08-20T13:27:43;29.90;99.90
26537;DHT22;14204;51.262;5.488;2023-08-20T13:30:10;30.00;99.90
26537;DHT22;14204;51.262;5.488;2023-08-20T13:32:36;30.10;99.90
26537;DHT22;14204;51.262;5.488;2023-08-20T13:35:02;30.20;99.90
26537;DHT22;14204;51.262;5.488;2023-08-20T13:37:30;30.30;99.90
26537;DHT22;14204;51.262;5.488;2023-08-20T13:39:57;30.20;99.90
26537;DHT22;14204;51.262;5.488;2023-08-20T13:42:22;30.30;99.90
26537;DHT22;14204;51.262;5.488;2023-08-20T13:44:48;30.30;99.90
26537;DHT22;14204;51.262;5.488;2023-08-20T13:47:14;30.30;99.90
26537;DHT22;14204;51.262;5.488;2023-08-20T13:49:40;30.50;99.90
26537;DHT22;14204;51.262;5.488;2023-08-20T13:52:05;30.60;99.90
26537;DHT22;14204;51.262;5.488;2023-08-20T13:54:32;30.50;99.90
26537;DHT22;14204;51.262;5.488;2023-08-20T13:56:58;30.60;99.90
26537;DHT22;14204;51.262;5.488;2023-08-20T13:59:24;30.20;99.90
26537;DHT22;14204;51.262;5.488;2023-08-20T14:01:49;30.00;99.90
26537;DHT22;14204;51.262;5.488;2023-08-20T14:04:15;30.10;99.90
26537;DHT22;14204;51.262;5.488;2023-08-20T14:06:41;30.20;99.90
26537;DHT22;14204;51.262;5.488;2023-08-20T14:09:07;30.20;99.90
26537;DHT22;14204;51.262;5.488;2023-08-20T14:11:33;30.40;99.90
26537;DHT22;14204;51.262;5.488;2023-08-20T14:13:58;30.40;99.90
26537;DHT22;14204;51.262;5.488;2023-08-20T14:16:24;30.50;99.90
26537;DHT22;14204;51.262;5.488;2023-08-20T14:18:50;30.60;99.90
26537;DHT22;14204;51.262;5.488;2023-08-20T14:21:16;30.20;99.90
26537;DHT22;14204;51.262;5.488;2023-08-20T14:23:42;30.40;99.90
26537;DHT22;14204;51.262;5.488;2023-08-20T14:26:08;30.30;99.90
26537;DHT22;14204;51.262;5.488;2023-08-20T14:28:34;30.00;99.90
26537;DHT22;14204;51.262;5.488;2023-08-20T14:31:03;29.90;99.90
26537;DHT22;14204;51.262;5.488;2023-08-20T14:33:31;29.90;99.90
26537;DHT22;14204;51.262;5.488;2023-08-20T14:35:57;29.60;99.90
26537;DHT22;14204;51.262;5.488;2023-08-20T14:38:23;29.40;99.90
26537;DHT22;14204;51.262;5.488;2023-08-20T14:40:49;29.40;99.90
26537;DHT22;14204;51.262;5.488;2023-08-20T14:43:14;29.30;99.90
26537;DHT22;14204;51.262;5.488;2023-08-20T14:45:40;29.10;99.90
26537;DHT22;14204;51.262;5.488;2023-08-20T14:48:06;28.80;99.90
26537;DHT22;14204;51.262;5.488;2023-08-20T14:50:32;28.50;99.90
26537;DHT22;14204;51.262;5.488;2023-08-20T14:52:58;28.60;99.90
26537;DHT22;14204;51.262;5.488;2023-08-20T14:55:24;28.70;99.90
26537;DHT22;14204;51.262;5.488;2023-08-20T14:57:50;28.60;99.90
26537;DHT22;14204;51.262;5.488;2023-08-20T15:00:16;28.50;99.90
26537;DHT22;14204;51.262;5.488;2023-08-20T15:02:46;28.40;99.90
26537;DHT22;14204;51.262;5.488;2023-08-20T15:05:12;28.40;99.90
26537;DHT22;14204;51.262;5.488;2023-08-20T15:07:39;28.30;99.90
26537;DHT22;14204;51.262;5.488;2023-08-20T15:10:05;28.30;99.90
26537;DHT22;14204;51.262;5.488;2023-08-20T15:12:33;28.10;99.90
26537;DHT22;14204;51.262;5.488;2023-08-20T15:15:03;28.00;99.90
26537;DHT22;14204;51.262;5.488;2023-08-20T15:17:30;27.90;99.90
26537;DHT22;14204;51.262;5.488;2023-08-20T15:19:57;28.00;99.90
26537;DHT22;14204;51.262;5.488;2023-08-20T15:22:23;28.00;99.90
26537;DHT22;14204;51.262;5.488;2023-08-20T15:24:49;27.90;99.90
26537;DHT22;14204;51.262;5.488;2023-08-20T15:27:17;27.90;99.90
26537;DHT22;14204;51.262;5.488;2023-08-20T15:29:43;28.00;99.90
26537;DHT22;14204;51.262;5.488;2023-08-20T15:32:10;28.00;99.90
26537;DHT22;14204;51.262;5.488;2023-08-20T15:34:36;27.90;99.90
26537;DHT22;14204;51.262;5.488;2023-08-20T15:37:01;27.80;99.90
26537;DHT22;14204;51.262;5.488;2023-08-20T15:39:31;27.90;99.90
26537;DHT22;14204;51.262;5.488;2023-08-20T15:41:57;27.80;99.90